sensor_id;sensor_type;location;lat;lon;timestamp;pressure;altitude;pressure_sealevel;temperature;humidity
72896;BME280;61036;53.224;6.554;2023-04-28T00:01:30;101687.00;;;9.19;100.00
72896;BME280;61036;53.224;6.554;2023-04-28T00:03:56;101678.31;;;9.29;100.00
72896;BME280;61036;53.224;6.554;2023-04-28T00:06:22;101662.06;;;8.99;100.00
72896;BME280;61036;53.224;6.554;2023-04-28T00:08:48;101668.09;;;9.52;100.00
72896;BME280;61036;53.224;6.554;2023-04-28T00:11:13;101671.22;;;9.12;100.00
72896;BME280;61036;53.224;6.554;2023-04-28T00:13:39;101672.34;;;9.24;100.00
72896;BME280;61036;53.224;6.554;2023-04-28T00:16:05;101674.88;;;9.27;100.00
72896;BME280;61036;53.224;6.554;2023-04-28T00:18:30;101666.97;;;9.24;100.00
72896;BME280;61036;53.224;6.554;2023-04-28T00:20:57;101663.38;;;9.55;100.00
72896;BME280;61036;53.224;6.554;2023-04-28T00:23:22;101658.44;;;9.00;100.00
72896;BME280;61036;53.224;6.554;2023-04-28T00:25:52;101652.06;;;9.80;100.00
72896;BME280;61036;53.224;6.554;2023-04-28T00:28:17;101644.72;;;9.05;100.00
72896;BME280;61036;53.224;6.554;2023-04-28T00:30:43;101635.78;;;9.04;100.00
72896;BME280;61036;53.224;6.554;2023-04-28T00:33:09;101639.66;;;9.62;100.00
72896;BME280;61036;53.224;6.554;2023-04-28T00:35:34;101634.09;;;9.65;100.00
72896;BME280;61036;53.224;6.554;2023-04-28T00:38:00;101627.53;;;9.55;100.00
72896;BME280;61036;53.224;6.554;2023-04-28T00:40:37;101626.63;;;9.70;100.00
72896;BME280;61036;53.224;6.554;2023-04-28T00:43:04;101625.19;;;9.49;100.00
72896;BME280;61036;53.224;6.554;2023-04-28T00:45:29;101620.50;;;9.36;100.00
72896;BME280;61036;53.224;6.554;2023-04-28T00:47:56;101626.88;;;9.81;100.00
72896;BME280;61036;53.224;6.554;2023-04-28T00:50:23;101612.63;;;9.79;100.00
72896;BME280;61036;53.224;6.554;2023-04-28T00:52:49;101609.06;;;9.33;100.00
72896;BME280;61036;53.224;6.554;2023-04-28T00:55:15;101614.50;;;9.31;100.00
72896;BME280;61036;53.224;6.554;2023-04-28T00:57:42;101596.13;;;9.08;100.00
72896;BME280;61036;53.224;6.554;2023-04-28T01:00:08;101598.47;;;9.30;100.00
72896;BME280;61036;53.224;6.554;2023-04-28T01:02:35;101583.63;;;9.07;100.00
72896;BME280;61036;53.224;6.554;2023-04-28T01:05:02;101583.09;;;9.16;100.00
72896;BME280;61036;53.224;6.554;2023-04-28T01:07:28;101575.72;;;9.04;100.00
72896;BME280;61036;53.224;6.554;2023-04-28T01:09:54;101580.41;;;8.84;100.00
72896;BME280;61036;53.224;6.554;2023-04-28T01:12:24;101574.59;;;9.08;100.00
72896;BME280;61036;53.224;6.554;2023-04-28T01:14:53;101573.56;;;8.95;100.00
72896;BME280;61036;53.224;6.554;2023-04-28T01:17:18;101572.94;;;9.05;100.00
72896;BME280;61036;53.224;6.554;2023-04-28T01:19:44;101576.84;;;8.84;100.00
72896;BME280;61036;53.224;6.554;2023-04-28T01:22:10;101579.13;;;9.07;100.00
72896;BME280;61036;53.224;6.554;2023-04-28T01:24:38;101576.41;;;9.39;100.00
72896;BME280;61036;53.224;6.554;2023-04-28T01:27:06;101586.16;;;9.10;100.00
72896;BME280;61036;53.224;6.554;2023-04-28T01:29:31;101580.66;;;9.43;100.00
72896;BME280;61036;53.224;6.554;2023-04-28T01:31:57;101580.47;;;9.46;100.00
72896;BME280;61036;53.224;6.554;2023-04-28T01:34:22;101574.06;;;9.33;100.00
72896;BME280;61036;53.224;6.554;2023-04-28T01:36:48;101565.22;;;8.83;100.00
72896;BME280;61036;53.224;6.554;2023-04-28T01:39:13;101564.19;;;9.18;100.00
72896;BME280;61036;53.224;6.554;2023-04-28T01:41:40;101555.69;;;9.09;100.00
72896;BME280;61036;53.224;6.554;2023-04-28T01:44:05;101560.69;;;9.31;100.00
72896;BME280;61036;53.224;6.554;2023-04-28T01:46:32;101556.88;;;9.66;100.00
72896;BME280;61036;53.224;6.554;2023-04-28T01:48:57;101547.50;;;9.11;100.00
72896;BME280;61036;53.224;6.554;2023-04-28T01:51:23;101541.03;;;9.45;100.00
72896;BME280;61036;53.224;6.554;2023-04-28T01:53:49;101539.34;;;9.28;100.00
72896;BME280;61036;53.224;6.554;2023-04-28T01:56:14;101532.53;;;9.37;100.00
72896;BME280;61036;53.224;6.554;2023-04-28T01:58:40;101521.28;;;9.30;100.00
72896;BME280;61036;53.224;6.554;2023-04-28T02:01:07;101506.31;;;9.41;100.00
72896;BME280;61036;53.224;6.554;2023-04-28T02:03:32;101512.34;;;9.14;100.00
72896;BME280;61036;53.224;6.554;2023-04-28T02:06:01;101509.84;;;9.27;100.00
72896;BME280;61036;53.224;6.554;2023-04-28T02:08:26;101498.41;;;9.37;100.00
72896;BME280;61036;53.224;6.554;2023-04-28T02:10:52;101506.19;;;9.58;100.00
72896;BME280;61036;53.224;6.554;2023-04-28T02:13:19;101494.63;;;9.56;100.00
72896;BME280;61036;53.224;6.554;2023-04-28T02:15:44;101486.47;;;9.57;100.00
72896;BME280;61036;53.224;6.554;2023-04-28T02:18:11;101479.75;;;9.34;100.00
72896;BME280;61036;53.224;6.554;2023-04-28T02:20:38;101473.63;;;9.47;100.00
72896;BME280;61036;53.224;6.554;2023-04-28T02:23:06;101474.25;;;9.52;100.00
72896;BME280;61036;53.224;6.554;2023-04-28T02:25:32;101462.97;;;9.15;100.00
72896;BME280;61036;53.224;6.554;2023-04-28T02:27:57;101463.88;;;9.00;100.00
72896;BME280;61036;53.224;6.554;2023-04-28T02:30:24;101469.63;;;8.93;100.00
72896;BME280;61036;53.224;6.554;2023-04-28T02:32:50;101466.59;;;9.14;100.00
72896;BME280;61036;53.224;6.554;2023-04-28T02:35:16;101462.88;;;9.16;100.00
72896;BME280;61036;53.224;6.554;2023-04-28T02:37:42;101462.63;;;9.21;100.00
72896;BME280;61036;53.224;6.554;2023-04-28T02:40:07;101445.09;;;9.58;100.00
72896;BME280;61036;53.224;6.554;2023-04-28T02:42:33;101454.75;;;9.32;100.00
72896;BME280;61036;53.224;6.554;2023-04-28T02:44:59;101449.50;;;9.45;100.00
72896;BME280;61036;53.224;6.554;2023-04-28T02:47:24;101442.31;;;9.74;100.00
72896;BME280;61036;53.224;6.554;2023-04-28T02:49:50;101445.63;;;9.21;100.00
72896;BME280;61036;53.224;6.554;2023-04-28T02:52:15;101429.03;;;9.43;100.00
72896;BME280;61036;53.224;6.554;2023-04-28T02:54:41;101427.69;;;9.50;100.00
72896;BME280;61036;53.224;6.554;2023-04-28T02:57:07;101432.66;;;9.27;100.00
72896;BME280;61036;53.224;6.554;2023-04-28T02:59:32;101420.59;;;9.63;100.00
72896;BME280;61036;53.224;6.554;2023-04-28T03:01:58;101421.16;;;9.68;100.00
72896;BME280;61036;53.224;6.554;2023-04-28T03:04:23;101419.03;;;9.59;100.00
72896;BME280;61036;53.224;6.554;2023-04-28T03:06:49;101415.28;;;9.61;100.00
72896;BME280;61036;53.224;6.554;2023-04-28T03:09:15;101407.19;;;9.33;100.00
72896;BME280;61036;53.224;6.554;2023-04-28T03:11:40;101414.25;;;9.20;100.00
72896;BME280;61036;53.224;6.554;2023-04-28T03:14:06;101405.31;;;9.78;100.00
72896;BME280;61036;53.224;6.554;2023-04-28T03:16:32;101407.81;;;9.81;100.00
72896;BME280;61036;53.224;6.554;2023-04-28T03:18:58;101408.28;;;9.73;100.00
72896;BME280;61036;53.224;6.554;2023-04-28T03:21:24;101396.25;;;9.36;100.00
72896;BME280;61036;53.224;6.554;2023-04-28T03:23:52;101399.91;;;9.64;100.00
72896;BME280;61036;53.224;6.554;2023-04-28T03:26:18;101393.06;;;9.44;100.00
72896;BME280;61036;53.224;6.554;2023-04-28T03:28:43;101388.66;;;9.85;100.00
72896;BME280;61036;53.224;6.554;2023-04-28T03:31:09;101375.84;;;9.18;100.00
72896;BME280;61036;53.224;6.554;2023-04-28T03:33:35;101377.69;;;9.46;100.00
72896;BME280;61036;53.224;6.554;2023-04-28T03:36:01;101368.63;;;9.18;100.00
72896;BME280;61036;53.224;6.554;2023-04-28T03:38:26;101368.56;;;9.48;100.00
72896;BME280;61036;53.224;6.554;2023-04-28T03:40:52;101362.50;;;9.45;100.00
72896;BME280;61036;53.224;6.554;2023-04-28T03:43:44;101360.19;;;9.81;100.00
72896;BME280;61036;53.224;6.554;2023-04-28T03:46:22;101353.94;;;9.38;100.00
72896;BME280;61036;53.224;6.554;2023-04-28T03:48:48;101358.25;;;9.41;100.00
72896;BME280;61036;53.224;6.554;2023-04-28T03:51:13;101349.88;;;9.31;100.00
72896;BME280;61036;53.224;6.554;2023-04-28T03:53:40;101357.31;;;9.56;100.00
72896;BME280;61036;53.224;6.554;2023-04-28T03:56:06;101349.91;;;9.45;100.00
72896;BME280;61036;53.224;6.554;2023-04-28T03:58:31;101344.91;;;9.82;100.00
72896;BME280;61036;53.224;6.554;2023-04-28T04:00:57;101350.78;;;9.46;100.00
72896;BME280;61036;53.224;6.554;2023-04-28T04:03:25;101349.69;;;9.34;100.00
72896;BME280;61036;53.224;6.554;2023-04-28T04:05:51;101352.50;;;9.47;100.00
72896;BME280;61036;53.224;6.554;2023-04-28T04:08:18;101343.34;;;9.35;100.00
72896;BME280;61036;53.224;6.554;2023-04-28T04:10:44;101348.44;;;9.68;100.00
72896;BME280;61036;53.224;6.554;2023-04-28T04:13:09;101342.78;;;9.30;100.00
72896;BME280;61036;53.224;6.554;2023-04-28T04:15:35;101341.34;;;9.67;100.00
72896;BME280;61036;53.224;6.554;2023-04-28T04:18:02;101339.72;;;9.65;100.00
72896;BME280;61036;53.224;6.554;2023-04-28T04:20:37;101336.22;;;9.62;100.00
72896;BME280;61036;53.224;6.554;2023-04-28T04:23:03;101332.59;;;9.64;100.00
72896;BME280;61036;53.224;6.554;2023-04-28T04:25:29;101332.88;;;9.88;100.00
72896;BME280;61036;53.224;6.554;2023-04-28T04:27:55;101324.38;;;9.94;100.00
72896;BME280;61036;53.224;6.554;2023-04-28T04:30:20;101325.19;;;9.81;100.00
72896;BME280;61036;53.224;6.554;2023-04-28T04:32:46;101325.00;;;9.56;100.00
72896;BME280;61036;53.224;6.554;2023-04-28T04:35:12;101311.41;;;9.86;100.00
72896;BME280;61036;53.224;6.554;2023-04-28T04:37:38;101328.16;;;9.77;100.00
72896;BME280;61036;53.224;6.554;2023-04-28T04:40:04;101324.72;;;9.46;100.00
72896;BME280;61036;53.224;6.554;2023-04-28T04:42:36;101319.13;;;9.78;100.00
72896;BME280;61036;53.224;6.554;2023-04-28T04:45:07;101318.84;;;9.54;100.00
72896;BME280;61036;53.224;6.554;2023-04-28T04:47:33;101314.59;;;9.50;100.00
72896;BME280;61036;53.224;6.554;2023-04-28T04:49:58;101307.78;;;10.14;100.00
72896;BME280;61036;53.224;6.554;2023-04-28T04:52:24;101301.94;;;10.35;100.00
72896;BME280;61036;53.224;6.554;2023-04-28T04:54:50;101306.88;;;9.87;100.00
72896;BME280;61036;53.224;6.554;2023-04-28T04:57:15;101303.50;;;9.97;100.00
72896;BME280;61036;53.224;6.554;2023-04-28T05:00:03;101286.94;;;10.03;100.00
72896;BME280;61036;53.224;6.554;2023-04-28T05:02:29;101284.84;;;9.94;100.00
72896;BME280;61036;53.224;6.554;2023-04-28T05:04:55;101286.06;;;10.03;100.00
72896;BME280;61036;53.224;6.554;2023-04-28T05:07:20;101288.47;;;9.66;100.00
72896;BME280;61036;53.224;6.554;2023-04-28T05:09:46;101292.22;;;9.64;100.00
72896;BME280;61036;53.224;6.554;2023-04-28T05:12:12;101285.56;;;9.69;100.00
72896;BME280;61036;53.224;6.554;2023-04-28T05:14:37;101274.22;;;9.50;100.00
72896;BME280;61036;53.224;6.554;2023-04-28T05:17:03;101280.06;;;9.56;100.00
72896;BME280;61036;53.224;6.554;2023-04-28T05:19:32;101276.28;;;9.18;100.00
72896;BME280;61036;53.224;6.554;2023-04-28T05:21:58;101269.88;;;9.61;100.00
72896;BME280;61036;53.224;6.554;2023-04-28T05:24:25;101277.13;;;9.18;100.00
72896;BME280;61036;53.224;6.554;2023-04-28T05:26:51;101281.69;;;9.73;100.00
72896;BME280;61036;53.224;6.554;2023-04-28T05:29:18;101282.06;;;9.96;100.00
72896;BME280;61036;53.224;6.554;2023-04-28T05:31:43;101279.66;;;9.91;100.00
72896;BME280;61036;53.224;6.554;2023-04-28T05:34:09;101277.34;;;10.53;100.00
72896;BME280;61036;53.224;6.554;2023-04-28T05:36:35;101270.97;;;10.00;100.00
72896;BME280;61036;53.224;6.554;2023-04-28T05:39:01;101280.25;;;9.82;100.00
72896;BME280;61036;53.224;6.554;2023-04-28T05:41:27;101272.22;;;9.95;100.00
72896;BME280;61036;53.224;6.554;2023-04-28T05:43:53;101269.44;;;10.23;100.00
72896;BME280;61036;53.224;6.554;2023-04-28T05:46:19;101256.91;;;10.37;100.00
72896;BME280;61036;53.224;6.554;2023-04-28T05:48:45;101259.34;;;10.67;100.00
72896;BME280;61036;53.224;6.554;2023-04-28T05:51:10;101253.47;;;10.20;100.00
72896;BME280;61036;53.224;6.554;2023-04-28T05:53:36;101265.97;;;9.94;100.00
72896;BME280;61036;53.224;6.554;2023-04-28T05:56:02;101260.53;;;10.75;100.00
72896;BME280;61036;53.224;6.554;2023-04-28T05:58:28;101265.19;;;10.34;100.00
72896;BME280;61036;53.224;6.554;2023-04-28T06:00:54;101252.06;;;10.42;100.00
72896;BME280;61036;53.224;6.554;2023-04-28T06:03:20;101261.06;;;10.68;100.00
72896;BME280;61036;53.224;6.554;2023-04-28T06:05:46;101255.00;;;10.64;100.00
72896;BME280;61036;53.224;6.554;2023-04-28T06:08:13;101251.41;;;10.38;100.00
72896;BME280;61036;53.224;6.554;2023-04-28T06:10:39;101263.41;;;10.47;100.00
72896;BME280;61036;53.224;6.554;2023-04-28T06:13:04;101249.25;;;10.43;100.00
72896;BME280;61036;53.224;6.554;2023-04-28T06:15:31;101246.19;;;11.01;100.00
72896;BME280;61036;53.224;6.554;2023-04-28T06:17:57;101234.50;;;10.62;100.00
72896;BME280;61036;53.224;6.554;2023-04-28T06:20:24;101236.03;;;10.53;100.00
72896;BME280;61036;53.224;6.554;2023-04-28T06:22:50;101235.19;;;10.78;100.00
72896;BME280;61036;53.224;6.554;2023-04-28T06:25:16;101237.22;;;11.13;100.00
72896;BME280;61036;53.224;6.554;2023-04-28T06:27:44;101238.22;;;10.99;100.00
72896;BME280;61036;53.224;6.554;2023-04-28T06:30:16;101237.59;;;10.95;100.00
72896;BME280;61036;53.224;6.554;2023-04-28T06:32:43;101230.44;;;10.94;100.00
72896;BME280;61036;53.224;6.554;2023-04-28T06:35:09;101226.44;;;11.00;100.00
72896;BME280;61036;53.224;6.554;2023-04-28T06:37:34;101219.31;;;10.73;100.00
72896;BME280;61036;53.224;6.554;2023-04-28T06:40:00;101226.75;;;10.70;100.00
72896;BME280;61036;53.224;6.554;2023-04-28T06:42:26;101223.81;;;11.37;100.00
72896;BME280;61036;53.224;6.554;2023-04-28T06:45:02;101235.06;;;11.31;100.00
72896;BME280;61036;53.224;6.554;2023-04-28T06:47:27;101233.13;;;11.33;100.00
72896;BME280;61036;53.224;6.554;2023-04-28T06:49:53;101223.97;;;10.97;100.00
72896;BME280;61036;53.224;6.554;2023-04-28T06:52:19;101211.34;;;11.60;100.00
72896;BME280;61036;53.224;6.554;2023-04-28T06:54:48;101210.19;;;11.88;100.00
72896;BME280;61036;53.224;6.554;2023-04-28T06:57:13;101215.34;;;11.54;100.00
72896;BME280;61036;53.224;6.554;2023-04-28T06:59:39;101214.63;;;11.39;100.00
72896;BME280;61036;53.224;6.554;2023-04-28T07:02:08;101198.75;;;12.08;100.00
72896;BME280;61036;53.224;6.554;2023-04-28T07:04:35;101199.88;;;12.41;100.00
72896;BME280;61036;53.224;6.554;2023-04-28T07:07:00;101207.72;;;11.85;100.00
72896;BME280;61036;53.224;6.554;2023-04-28T07:09:26;101198.28;;;11.90;100.00
72896;BME280;61036;53.224;6.554;2023-04-28T07:11:51;101203.41;;;11.82;100.00
72896;BME280;61036;53.224;6.554;2023-04-28T07:14:17;101200.91;;;11.92;100.00
72896;BME280;61036;53.224;6.554;2023-04-28T07:16:42;101204.78;;;11.51;100.00
72896;BME280;61036;53.224;6.554;2023-04-28T07:19:08;101207.09;;;12.05;100.00
72896;BME280;61036;53.224;6.554;2023-04-28T07:21:33;101206.09;;;11.82;100.00
72896;BME280;61036;53.224;6.554;2023-04-28T07:23:59;101204.94;;;12.57;100.00
72896;BME280;61036;53.224;6.554;2023-04-28T07:26:25;101203.44;;;12.42;100.00
72896;BME280;61036;53.224;6.554;2023-04-28T07:28:50;101197.81;;;12.21;100.00
72896;BME280;61036;53.224;6.554;2023-04-28T07:31:16;101201.84;;;12.50;100.00
72896;BME280;61036;53.224;6.554;2023-04-28T07:33:42;101192.47;;;12.32;100.00
72896;BME280;61036;53.224;6.554;2023-04-28T07:36:07;101204.13;;;11.48;100.00
72896;BME280;61036;53.224;6.554;2023-04-28T07:38:33;101194.34;;;12.43;100.00
72896;BME280;61036;53.224;6.554;2023-04-28T07:41:00;101192.59;;;12.30;100.00
72896;BME280;61036;53.224;6.554;2023-04-28T07:43:26;101186.28;;;12.30;100.00
72896;BME280;61036;53.224;6.554;2023-04-28T07:45:51;101178.94;;;11.84;100.00
72896;BME280;61036;53.224;6.554;2023-04-28T07:48:17;101172.66;;;11.96;100.00
72896;BME280;61036;53.224;6.554;2023-04-28T07:50:42;101177.56;;;11.78;100.00
72896;BME280;61036;53.224;6.554;2023-04-28T07:53:08;101175.03;;;12.12;100.00
72896;BME280;61036;53.224;6.554;2023-04-28T07:55:33;101172.63;;;12.20;100.00
72896;BME280;61036;53.224;6.554;2023-04-28T07:57:59;101171.50;;;12.58;100.00
72896;BME280;61036;53.224;6.554;2023-04-28T08:00:25;101166.78;;;12.38;100.00
72896;BME280;61036;53.224;6.554;2023-04-28T08:02:50;101164.34;;;12.57;100.00
72896;BME280;61036;53.224;6.554;2023-04-28T08:05:16;101165.09;;;12.48;100.00
72896;BME280;61036;53.224;6.554;2023-04-28T08:07:42;101163.44;;;12.92;100.00
72896;BME280;61036;53.224;6.554;2023-04-28T08:10:11;101169.47;;;13.07;100.00
72896;BME280;61036;53.224;6.554;2023-04-28T08:12:37;101173.75;;;12.64;100.00
72896;BME280;61036;53.224;6.554;2023-04-28T08:15:03;101170.25;;;12.40;100.00
72896;BME280;61036;53.224;6.554;2023-04-28T08:17:29;101170.47;;;12.01;100.00
72896;BME280;61036;53.224;6.554;2023-04-28T08:19:54;101179.50;;;11.89;100.00
72896;BME280;61036;53.224;6.554;2023-04-28T08:22:20;101175.13;;;11.99;100.00
72896;BME280;61036;53.224;6.554;2023-04-28T08:24:45;101171.03;;;12.75;100.00
72896;BME280;61036;53.224;6.554;2023-04-28T08:27:11;101175.84;;;12.61;100.00
72896;BME280;61036;53.224;6.554;2023-04-28T08:29:37;101175.25;;;12.91;100.00
72896;BME280;61036;53.224;6.554;2023-04-28T08:32:04;101177.22;;;13.00;100.00
72896;BME280;61036;53.224;6.554;2023-04-28T08:34:31;101174.03;;;12.95;100.00
72896;BME280;61036;53.224;6.554;2023-04-28T08:36:57;101183.88;;;13.07;100.00
72896;BME280;61036;53.224;6.554;2023-04-28T08:39:23;101178.44;;;12.73;100.00
72896;BME280;61036;53.224;6.554;2023-04-28T08:41:50;101186.75;;;12.59;100.00
72896;BME280;61036;53.224;6.554;2023-04-28T08:44:16;101182.56;;;12.55;100.00
72896;BME280;61036;53.224;6.554;2023-04-28T08:46:43;101184.88;;;12.48;100.00
72896;BME280;61036;53.224;6.554;2023-04-28T08:49:14;101171.31;;;13.40;100.00
72896;BME280;61036;53.224;6.554;2023-04-28T08:51:58;101176.63;;;13.30;100.00
72896;BME280;61036;53.224;6.554;2023-04-28T08:54:29;101170.47;;;13.28;100.00
72896;BME280;61036;53.224;6.554;2023-04-28T08:56:55;101162.56;;;13.14;100.00
72896;BME280;61036;53.224;6.554;2023-04-28T08:59:21;101172.63;;;12.78;100.00
72896;BME280;61036;53.224;6.554;2023-04-28T09:01:48;101163.91;;;13.19;100.00
72896;BME280;61036;53.224;6.554;2023-04-28T09:04:18;101165.22;;;13.70;100.00
72896;BME280;61036;53.224;6.554;2023-04-28T09:06:44;101165.06;;;13.39;100.00
72896;BME280;61036;53.224;6.554;2023-04-28T09:09:27;101168.25;;;14.20;100.00
72896;BME280;61036;53.224;6.554;2023-04-28T09:11:58;101156.19;;;13.81;100.00
72896;BME280;61036;53.224;6.554;2023-04-28T09:14:24;101147.28;;;13.58;100.00
72896;BME280;61036;53.224;6.554;2023-04-28T09:16:50;101135.84;;;13.43;100.00
72896;BME280;61036;53.224;6.554;2023-04-28T09:19:16;101130.88;;;13.59;100.00
72896;BME280;61036;53.224;6.554;2023-04-28T09:21:52;101130.25;;;14.83;100.00
72896;BME280;61036;53.224;6.554;2023-04-28T09:26:50;101112.97;;;13.36;100.00
72896;BME280;61036;53.224;6.554;2023-04-28T09:29:16;101107.09;;;13.95;100.00
72896;BME280;61036;53.224;6.554;2023-04-28T09:31:41;101110.38;;;14.82;100.00
72896;BME280;61036;53.224;6.554;2023-04-28T09:34:08;101112.69;;;13.82;100.00
72896;BME280;61036;53.224;6.554;2023-04-28T09:36:33;101105.41;;;13.50;100.00
72896;BME280;61036;53.224;6.554;2023-04-28T09:39:00;101107.63;;;14.73;100.00
72896;BME280;61036;53.224;6.554;2023-04-28T09:41:40;101101.97;;;14.85;100.00
72896;BME280;61036;53.224;6.554;2023-04-28T09:44:23;101096.28;;;15.39;100.00
72896;BME280;61036;53.224;6.554;2023-04-28T09:46:49;101095.00;;;14.62;100.00
72896;BME280;61036;53.224;6.554;2023-04-28T09:49:14;101085.50;;;15.68;100.00
72896;BME280;61036;53.224;6.554;2023-04-28T09:51:40;101076.88;;;16.11;100.00
72896;BME280;61036;53.224;6.554;2023-04-28T09:54:06;101077.22;;;18.45;92.13
72896;BME280;61036;53.224;6.554;2023-04-28T09:56:33;101084.63;;;17.10;90.42
72896;BME280;61036;53.224;6.554;2023-04-28T09:59:02;101072.22;;;16.98;92.62
72896;BME280;61036;53.224;6.554;2023-04-28T10:01:39;101071.50;;;16.96;95.47
72896;BME280;61036;53.224;6.554;2023-04-28T10:04:05;101064.53;;;16.27;99.73
72896;BME280;61036;53.224;6.554;2023-04-28T10:06:35;101057.41;;;16.06;100.00
72896;BME280;61036;53.224;6.554;2023-04-28T10:09:01;101060.44;;;16.60;96.02
72896;BME280;61036;53.224;6.554;2023-04-28T10:11:27;101069.47;;;16.04;100.00
72896;BME280;61036;53.224;6.554;2023-04-28T10:13:53;101060.28;;;15.66;100.00
72896;BME280;61036;53.224;6.554;2023-04-28T10:16:19;101071.66;;;15.30;100.00
72896;BME280;61036;53.224;6.554;2023-04-28T10:18:45;101063.59;;;15.09;100.00
72896;BME280;61036;53.224;6.554;2023-04-28T10:21:11;101055.66;;;16.34;100.00
72896;BME280;61036;53.224;6.554;2023-04-28T10:29:26;101031.13;;;17.09;100.00
72896;BME280;61036;53.224;6.554;2023-04-28T10:34:42;101037.69;;;17.16;97.16
72896;BME280;61036;53.224;6.554;2023-04-28T10:37:08;101037.16;;;16.85;96.76
72896;BME280;61036;53.224;6.554;2023-04-28T10:39:33;101036.06;;;16.96;98.33
72896;BME280;61036;53.224;6.554;2023-04-28T10:41:59;101038.69;;;17.15;97.30
72896;BME280;61036;53.224;6.554;2023-04-28T10:55:28;101034.94;;;17.79;97.41
72896;BME280;61036;53.224;6.554;2023-04-28T11:00:40;101033.31;;;16.31;100.00
72896;BME280;61036;53.224;6.554;2023-04-28T11:03:06;101033.97;;;16.52;100.00
72896;BME280;61036;53.224;6.554;2023-04-28T11:05:32;101032.13;;;16.43;100.00
72896;BME280;61036;53.224;6.554;2023-04-28T11:11:18;101024.44;;;16.29;100.00
72896;BME280;61036;53.224;6.554;2023-04-28T11:13:45;101023.63;;;15.99;100.00
72896;BME280;61036;53.224;6.554;2023-04-28T11:16:15;101022.66;;;15.81;100.00
72896;BME280;61036;53.224;6.554;2023-04-28T11:21:20;101016.03;;;16.87;100.00
72896;BME280;61036;53.224;6.554;2023-04-28T11:23:46;101016.06;;;16.50;100.00
72896;BME280;61036;53.224;6.554;2023-04-28T11:26:11;101006.69;;;16.15;100.00
72896;BME280;61036;53.224;6.554;2023-04-28T11:28:52;101012.97;;;17.00;100.00
72896;BME280;61036;53.224;6.554;2023-04-28T11:31:18;101019.13;;;16.27;100.00
72896;BME280;61036;53.224;6.554;2023-04-28T11:34:05;101011.22;;;16.81;100.00
72896;BME280;61036;53.224;6.554;2023-04-28T11:38:59;101005.88;;;16.89;100.00
72896;BME280;61036;53.224;6.554;2023-04-28T11:41:25;100999.69;;;16.87;100.00
72896;BME280;61036;53.224;6.554;2023-04-28T11:43:52;100999.78;;;16.67;100.00
72896;BME280;61036;53.224;6.554;2023-04-28T11:46:19;100994.38;;;17.13;100.00
72896;BME280;61036;53.224;6.554;2023-04-28T11:48:46;100986.59;;;16.63;100.00
72896;BME280;61036;53.224;6.554;2023-04-28T11:51:47;100986.84;;;17.43;100.00
72896;BME280;61036;53.224;6.554;2023-04-28T11:54:20;100984.44;;;16.66;100.00
72896;BME280;61036;53.224;6.554;2023-04-28T11:56:46;100986.34;;;16.29;100.00
72896;BME280;61036;53.224;6.554;2023-04-28T11:59:12;100981.63;;;16.31;100.00
72896;BME280;61036;53.224;6.554;2023-04-28T12:01:46;100984.63;;;16.92;100.00
72896;BME280;61036;53.224;6.554;2023-04-28T12:04:12;100986.72;;;15.87;100.00
72896;BME280;61036;53.224;6.554;2023-04-28T12:06:39;100976.44;;;16.65;100.00
72896;BME280;61036;53.224;6.554;2023-04-28T12:09:18;100978.44;;;17.18;100.00
72896;BME280;61036;53.224;6.554;2023-04-28T12:11:56;100980.59;;;17.14;100.00
72896;BME280;61036;53.224;6.554;2023-04-28T12:14:23;100979.09;;;16.75;100.00
72896;BME280;61036;53.224;6.554;2023-04-28T12:16:49;100979.16;;;16.65;100.00
72896;BME280;61036;53.224;6.554;2023-04-28T12:19:15;100977.06;;;16.12;100.00
72896;BME280;61036;53.224;6.554;2023-04-28T12:21:41;100973.50;;;16.86;100.00
72896;BME280;61036;53.224;6.554;2023-04-28T12:24:19;100977.78;;;16.51;100.00
72896;BME280;61036;53.224;6.554;2023-04-28T12:26:45;100973.44;;;16.31;100.00
72896;BME280;61036;53.224;6.554;2023-04-28T12:29:33;100968.13;;;15.82;100.00
72896;BME280;61036;53.224;6.554;2023-04-28T12:31:59;100974.06;;;16.52;100.00
72896;BME280;61036;53.224;6.554;2023-04-28T12:34:24;100975.41;;;16.76;100.00
72896;BME280;61036;53.224;6.554;2023-04-28T12:36:51;100968.84;;;16.31;100.00
72896;BME280;61036;53.224;6.554;2023-04-28T12:39:17;100980.19;;;16.64;100.00
72896;BME280;61036;53.224;6.554;2023-04-28T12:41:52;100974.41;;;16.77;100.00
72896;BME280;61036;53.224;6.554;2023-04-28T12:44:20;100972.81;;;16.74;100.00
72896;BME280;61036;53.224;6.554;2023-04-28T12:46:47;100966.41;;;16.65;100.00
72896;BME280;61036;53.224;6.554;2023-04-28T12:49:12;100959.50;;;16.71;100.00
72896;BME280;61036;53.224;6.554;2023-04-28T12:51:39;100962.72;;;16.84;100.00
72896;BME280;61036;53.224;6.554;2023-04-28T12:54:06;100964.81;;;16.63;100.00
72896;BME280;61036;53.224;6.554;2023-04-28T12:56:31;100961.59;;;17.05;100.00
72896;BME280;61036;53.224;6.554;2023-04-28T12:58:57;100957.63;;;16.99;100.00
72896;BME280;61036;53.224;6.554;2023-04-28T13:01:23;100959.19;;;17.20;100.00
72896;BME280;61036;53.224;6.554;2023-04-28T13:03:49;100953.81;;;17.46;100.00
72896;BME280;61036;53.224;6.554;2023-04-28T13:06:17;100948.81;;;17.59;100.00
72896;BME280;61036;53.224;6.554;2023-04-28T13:08:42;100943.50;;;17.75;100.00
72896;BME280;61036;53.224;6.554;2023-04-28T13:11:09;100938.19;;;17.30;100.00
72896;BME280;61036;53.224;6.554;2023-04-28T13:13:35;100938.63;;;17.07;100.00
72896;BME280;61036;53.224;6.554;2023-04-28T13:16:01;100930.31;;;16.91;100.00
72896;BME280;61036;53.224;6.554;2023-04-28T13:18:29;100935.81;;;17.35;100.00